Time,TemperatureF,DewpointF,PressureIn,WindDirection,WindDirectionDegrees,WindSpeedMPH,WindSpeedGustMPH,Humidity,HourlyPrecipIn,Conditions,Clouds,dailyrainin,SoftwareType,DateUTC
2013-07-08 00:26:00,72.5,71.0,30.10,SW,226,1.0,2.0,96,0.00,,,0.00,weatherlink.com 1.10,2013-07-08 04:26:00,
2013-07-08 00:41:00,71.9,71.0,30.10,SSW,195,0.0,1.0,97,0.00,,,0.00,weatherlink.com 1.10,2013-07-08 04:41:00,
2013-07-08 00:56:00,71.9,71.0,30.10,SSW,195,0.0,0.0,97,0.00,,,0.00,weatherlink.com 1.10,2013-07-08 04:56:00,
2013-07-08 01:11:00,72.0,71.0,30.09,SSW,195,0.0,1.0,96,0.00,,,0.00,weatherlink.com 1.10,2013-07-08 05:11:00,
2013-07-08 01:26:00,71.9,71.0,30.10,SSW,195,0.0,1.0,96,0.00,,,0.00,weatherlink.com 1.10,2013-07-08 05:26:00,
2013-07-08 01:42:00,71.7,71.0,30.10,SSW,195,0.0,1.0,96,0.00,,,0.00,weatherlink.com 1.10,2013-07-08 05:42:00,
2013-07-08 01:57:00,71.7,71.0,30.10,SSW,195,0.0,1.0,96,0.00,,,0.00,weatherlink.com 1.10,2013-07-08 05:57:00,
2013-07-08 02:12:00,71.6,70.0,30.09,SSW,195,1.0,2.0,96,0.00,,,0.00,weatherlink.com 1.10,2013-07-08 06:12:00,
2013-07-08 02:27:00,71.4,71.0,30.09,ENE,75,0.0,1.0,97,0.00,,,0.00,weatherlink.com 1.10,2013-07-08 06:27:00,
2013-07-08 02:42:00,71.3,70.0,30.10,ENE,75,0.0,0.0,97,0.00,,,0.00,weatherlink.com 1.10,2013-07-08 06:42:00,
2013-07-08 02:57:00,71.3,70.0,30.10,ENE,75,0.0,2.0,97,0.00,,,0.00,weatherlink.com 1.10,2013-07-08 06:57:00,
2013-07-08 03:12:00,71.2,70.0,30.10,ENE,75,1.0,3.0,97,0.00,,,0.00,weatherlink.com 1.10,2013-07-08 07:12:00,
2013-07-08 03:27:00,71.1,70.0,30.10,ENE,75,0.0,2.0,97,0.00,,,0.00,weatherlink.com 1.10,2013-07-08 07:27:00,
2013-07-08 03:42:00,70.9,70.0,30.10,ENE,75,0.0,2.0,97,0.00,,,0.00,weatherlink.com 1.10,2013-07-08 07:42:00,
2013-07-08 03:57:00,70.8,70.0,30.10,ENE,75,0.0,0.0,97,0.00,,,0.00,weatherlink.com 1.10,2013-07-08 07:57:00,
2013-07-08 04:12:00,70.6,70.0,30.09,ENE,75,0.0,1.0,97,0.00,,,0.00,weatherlink.com 1.10,2013-07-08 08:12:00,
2013-07-08 04:27:00,70.5,70.0,30.09,ENE,75,0.0,1.0,98,0.00,,,0.00,weatherlink.com 1.10,2013-07-08 08:27:00,
2013-07-08 04:42:00,70.3,69.0,30.09,ENE,75,0.0,1.0,97,0.00,,,0.00,weatherlink.com 1.10,2013-07-08 08:42:00,
2013-07-08 04:57:00,70.1,70.0,30.09,ENE,75,0.0,2.0,98,0.00,,,0.00,weatherlink.com 1.10,2013-07-08 08:57:00,
2013-07-08 05:12:00,70.1,70.0,30.09,ENE,75,0.0,2.0,98,0.00,,,0.00,weatherlink.com 1.10,2013-07-08 09:12:00,
2013-07-08 05:27:00,69.9,69.0,30.09,ENE,75,0.0,1.0,98,0.00,,,0.00,weatherlink.com 1.10,2013-07-08 09:27:00,
2013-07-08 05:42:00,69.7,69.0,30.09,East,83,0.0,3.0,98,0.00,,,0.00,weatherlink.com 1.10,2013-07-08 09:42:00,
2013-07-08 05:57:00,69.8,69.0,30.08,NE,43,0.0,3.0,98,0.00,,,0.00,weatherlink.com 1.10,2013-07-08 09:57:00,
2013-07-08 06:12:00,69.9,69.0,30.08,East,81,0.0,2.0,98,0.00,,,0.00,weatherlink.com 1.10,2013-07-08 10:12:00,
2013-07-08 06:27:00,70.1,70.0,30.08,East,81,0.0,1.0,98,0.00,,,0.00,weatherlink.com 1.10,2013-07-08 10:27:00,
2013-07-08 06:42:00,70.2,70.0,30.09,East,81,0.0,1.0,98,0.00,,,0.00,weatherlink.com 1.10,2013-07-08 10:42:00,
2013-07-08 06:57:00,70.1,70.0,30.11,South,180,3.0,7.0,98,0.00,,,0.00,weatherlink.com 1.10,2013-07-08 10:57:00,
2013-07-08 07:12:00,70.2,70.0,30.11,SSW,201,1.0,5.0,98,0.00,,,0.00,weatherlink.com 1.10,2013-07-08 11:12:00,
2013-07-08 07:27:00,70.3,70.0,30.12,SSE,156,1.0,4.0,98,0.00,,,0.00,weatherlink.com 1.10,2013-07-08 11:27:00,
2013-07-08 07:42:00,70.5,70.0,30.12,South,188,0.0,3.0,98,0.00,,,0.00,weatherlink.com 1.10,2013-07-08 11:42:00,
2013-07-08 07:57:00,70.7,70.0,30.13,South,188,0.0,1.0,98,0.00,,,0.00,weatherlink.com 1.10,2013-07-08 11:57:00,
2013-07-08 08:12:00,71.0,70.0,30.13,South,188,0.0,2.0,97,0.00,,,0.00,weatherlink.com 1.10,2013-07-08 12:12:00,
2013-07-08 08:27:00,71.4,71.0,30.13,NW,320,1.0,2.0,97,0.00,,,0.00,weatherlink.com 1.10,2013-07-08 12:27:00,
2013-07-08 08:42:00,72.3,71.0,30.13,NW,324,0.0,3.0,95,0.00,,,0.00,weatherlink.com 1.10,2013-07-08 12:42:00,
2013-07-08 08:57:00,73.4,71.0,30.14,NW,324,1.0,3.0,93,0.00,,,0.00,weatherlink.com 1.10,2013-07-08 12:57:00,
2013-07-08 09:12:00,74.2,71.0,30.14,NW,324,0.0,1.0,90,0.00,,,0.00,weatherlink.com 1.10,2013-07-08 13:12:00,
2013-07-08 09:27:00,74.8,71.0,30.14,NW,324,0.0,3.0,89,0.00,,,0.00,weatherlink.com 1.10,2013-07-08 13:27:00,
2013-07-08 09:43:00,75.3,71.0,30.14,NW,320,1.0,3.0,87,0.00,,,0.00,weatherlink.com 1.10,2013-07-08 13:43:00,
2013-07-08 09:58:00,75.9,71.0,30.15,NW,320,1.0,3.0,85,0.00,,,0.00,weatherlink.com 1.10,2013-07-08 13:58:00,
2013-07-08 10:13:00,77.5,72.0,30.15,SE,139,2.0,4.0,82,0.00,,,0.00,weatherlink.com 1.10,2013-07-08 14:13:00,
2013-07-08 10:28:00,79.3,71.0,30.15,East,89,1.0,5.0,75,0.00,,,0.00,weatherlink.com 1.10,2013-07-08 14:28:00,
2013-07-08 10:43:00,80.6,71.0,30.15,ESE,111,3.0,5.0,73,0.00,,,0.00,weatherlink.com 1.10,2013-07-08 14:43:00,
2013-07-08 10:58:00,81.3,71.0,30.15,East,90,0.0,5.0,72,0.00,,,0.00,weatherlink.com 1.10,2013-07-08 14:58:00,
2013-07-08 11:13:00,81.5,70.0,30.15,NNE,21,2.0,5.0,69,0.00,,,0.00,weatherlink.com 1.10,2013-07-08 15:13:00,
2013-07-08 11:28:00,83.0,71.0,30.15,ESE,119,0.0,5.0,67,0.00,,,0.00,weatherlink.com 1.10,2013-07-08 15:28:00,
2013-07-08 11:43:00,82.2,71.0,30.15,NE,34,3.0,5.0,68,0.00,,,0.00,weatherlink.com 1.10,2013-07-08 15:43:00,
2013-07-08 11:58:00,82.8,71.0,30.15,North,359,3.0,4.0,68,0.00,,,0.00,weatherlink.com 1.10,2013-07-08 15:58:00,
2013-07-08 12:13:00,82.9,71.0,30.14,East,91,2.0,5.0,67,0.00,,,0.00,weatherlink.com 1.10,2013-07-08 16:13:00,
2013-07-08 12:28:00,83.9,71.0,30.14,SE,144,2.0,6.0,66,0.00,,,0.00,weatherlink.com 1.10,2013-07-08 16:28:00,
2013-07-08 12:43:00,83.1,71.0,30.14,South,186,4.0,5.0,68,0.00,,,0.00,weatherlink.com 1.10,2013-07-08 16:43:00,
2013-07-08 12:58:00,84.0,71.0,30.14,SSW,208,3.0,7.0,65,0.00,,,0.00,weatherlink.com 1.10,2013-07-08 16:58:00,
2013-07-08 13:13:00,83.1,70.0,30.13,WSW,237,1.0,6.0,65,0.00,,,0.00,weatherlink.com 1.10,2013-07-08 17:13:00,
2013-07-08 13:28:00,84.5,70.0,30.13,SE,145,1.0,6.0,63,0.00,,,0.00,weatherlink.com 1.10,2013-07-08 17:28:00,
2013-07-08 13:58:00,85.3,73.0,30.12,SSE,155,1.0,5.0,67,0.00,,,0.00,weatherlink.com 1.10,2013-07-08 17:58:00,
2013-07-08 14:44:00,85.4,71.0,30.11,SSE,157,1.0,4.0,63,0.00,,,0.00,weatherlink.com 1.10,2013-07-08 18:44:00,
2013-07-08 14:59:00,86.3,74.0,30.10,ESE,118,3.0,6.0,67,0.00,,,0.00,weatherlink.com 1.10,2013-07-08 18:59:00,
2013-07-08 15:29:00,85.1,73.0,30.09,SSE,158,0.0,8.0,67,0.00,,,0.00,weatherlink.com 1.10,2013-07-08 19:29:00,
2013-07-08 15:44:00,84.9,74.0,30.09,SSE,160,4.0,8.0,70,0.00,,,0.00,weatherlink.com 1.10,2013-07-08 19:44:00,
2013-07-08 16:14:00,86.3,73.0,30.08,South,191,5.0,7.0,65,0.00,,,0.00,weatherlink.com 1.10,2013-07-08 20:14:00,
2013-07-08 16:29:00,86.3,73.0,30.07,South,183,1.0,5.0,65,0.00,,,0.00,weatherlink.com 1.10,2013-07-08 20:29:00,
2013-07-08 16:44:00,85.4,72.0,30.06,South,189,3.0,6.0,65,0.00,,,0.00,weatherlink.com 1.10,2013-07-08 20:44:00,
2013-07-08 16:59:00,83.4,74.0,30.06,SSW,199,3.0,8.0,72,0.00,,,0.00,weatherlink.com 1.10,2013-07-08 20:59:00,
2013-07-08 17:45:00,80.0,72.0,30.06,SSE,164,2.0,8.0,77,0.00,,,0.00,weatherlink.com 1.10,2013-07-08 21:45:00,
2013-07-08 18:00:00,80.7,73.0,30.06,South,186,4.0,8.0,77,0.00,,,0.00,weatherlink.com 1.10,2013-07-08 22:00:00,
2013-07-08 18:30:00,81.3,73.0,30.06,SSE,157,4.0,6.0,77,0.00,,,0.00,weatherlink.com 1.10,2013-07-08 22:30:00,
2013-07-08 18:45:00,81.3,74.0,30.06,SW,216,2.0,5.0,79,0.00,,,0.00,weatherlink.com 1.10,2013-07-08 22:45:00,
2013-07-08 19:00:00,81.6,75.0,30.07,SW,216,0.0,2.0,80,0.00,,,0.00,weatherlink.com 1.10,2013-07-08 23:00:00,
2013-07-08 19:15:00,81.3,75.0,30.06,SSE,162,1.0,5.0,82,0.00,,,0.00,weatherlink.com 1.10,2013-07-08 23:15:00,
2013-07-08 19:30:00,80.9,75.0,30.06,South,173,1.0,5.0,82,0.00,,,0.00,weatherlink.com 1.10,2013-07-08 23:30:00,
2013-07-08 19:45:00,80.8,75.0,30.06,South,173,0.0,1.0,83,0.00,,,0.00,weatherlink.com 1.10,2013-07-08 23:45:00,
2013-07-08 20:15:00,80.5,75.0,30.07,South,173,0.0,1.0,83,0.00,,,0.00,weatherlink.com 1.10,2013-07-09 00:15:00,
2013-07-08 21:01:00,77.2,73.0,30.09,WSW,247,4.0,13.0,86,0.00,,,0.00,weatherlink.com 1.10,2013-07-09 01:01:00,
2013-07-08 21:16:00,74.1,71.0,30.09,SW,216,7.0,11.0,90,0.00,,,0.00,weatherlink.com 1.10,2013-07-09 01:16:00,
2013-07-08 21:31:00,71.7,70.0,30.10,West,270,4.0,12.0,95,0.00,,,0.00,weatherlink.com 1.10,2013-07-09 01:31:00,
2013-07-08 21:46:00,71.3,70.0,30.12,NNE,12,1.0,6.0,96,0.00,,,0.00,weatherlink.com 1.10,2013-07-09 01:46:00,
2013-07-08 22:16:00,71.5,71.0,30.13,NNW,327,2.0,4.0,97,0.00,,,0.00,weatherlink.com 1.10,2013-07-09 02:16:00,
2013-07-08 22:31:00,71.3,70.0,30.13,NW,320,0.0,5.0,96,0.00,,,0.00,weatherlink.com 1.10,2013-07-09 02:31:00,
2013-07-08 22:46:00,71.5,70.0,30.13,NW,324,2.0,4.0,96,0.00,,,0.00,weatherlink.com 1.10,2013-07-09 02:46:00,